Time;durP1;ratioP1;P1;durP2;ratioP2;P2;SDS_P1;SDS_P2;PMS_P1;PMS_P2;Temp;Humidity;BMP_temperature;BMP_pressure;BME280_temperature;BME280_humidity;BME280_pressure;Samples;Min_cycle;Max_cycle;Signal;HPM_P1;HPM_P2
2023/01/26 00:01:02;;;;;;;29.67;15.05;;;17.30;70.60;;;18.21;39.70;99404.53;5073072;28;20047;-82
2023/01/26 00:03:28;;;;;;;26.35;13.65;;;17.30;70.70;;;18.26;39.96;99397.31;5090791;28;20044;-82
2023/01/26 00:05:54;;;;;;;36.13;15.52;;;17.20;71.00;;;18.27;39.98;99391.53;5056583;28;20042;-82
2023/01/26 00:08:21;;;;;;;26.65;14.63;;;17.30;71.20;;;18.24;39.82;99394.88;5090149;28;20493;-82
2023/01/26 00:10:49;;;;;;;30.00;13.80;;;17.30;71.10;;;18.26;39.66;99397.31;5093373;28;20115;-83
2023/01/26 00:13:21;;;;;;;30.25;15.13;;;17.30;71.00;;;18.20;39.75;99391.94;5095337;28;20039;-83
2023/01/26 00:15:47;;;;;;;;;;;17.30;71.00;;;18.14;39.94;99389.63;5062341;28;20107;-83
2023/01/26 00:18:13;;;;;;;22.73;13.45;;;17.30;71.00;;;18.15;39.98;99381.09;5092471;28;19927;-82
2023/01/26 00:20:39;;;;;;;28.48;14.10;;;17.30;70.90;;;18.23;39.77;99383.09;5057079;28;20040;-83
2023/01/26 00:23:06;;;;;;;31.13;15.70;;;17.30;71.20;;;18.25;40.03;99374.56;5114940;28;20047;-82
2023/01/26 00:25:32;;;;;;;28.30;14.55;;;17.30;71.30;;;18.19;39.96;99373.03;5064297;28;20410;-82
2023/01/26 00:27:58;;;;;;;26.30;15.13;;;17.30;71.20;;;18.20;39.78;99367.25;5094083;28;20410;-82
2023/01/26 00:30:24;;;;;;;24.58;13.45;;;17.30;71.20;;;18.20;39.82;99369.19;5090546;27;20031;-82
2023/01/26 00:32:50;;;;;;;27.35;14.00;;;17.30;71.10;;;18.17;39.79;99365.13;5061647;28;20036;-82
2023/01/26 00:35:16;;;;;;;26.23;13.65;;;17.30;71.00;;;18.14;39.91;99371.25;5093956;28;20061;-82
2023/01/26 00:37:42;;;;;;;26.27;14.65;;;17.30;71.00;;;18.19;39.72;99368.38;5110687;28;20442;-82
2023/01/26 00:40:09;;;;;;;23.08;12.85;;;17.20;71.00;;;18.11;39.84;99366.34;5077947;28;20043;-82
2023/01/26 00:42:36;;;;;;;23.95;13.27;;;17.20;70.80;;;18.12;39.96;99364.44;5077399;28;20047;-82
2023/01/26 00:45:02;;;;;;;30.67;15.20;;;17.20;70.90;;;18.13;39.67;99358.63;5092044;28;20586;-82
2023/01/26 00:47:28;;;;;;;26.13;14.73;;;17.20;70.90;;;18.14;39.68;99359.41;5093833;28;20517;-82
2023/01/26 00:49:54;;;;;;;23.98;12.43;;;17.20;70.90;;;18.14;39.71;99343.78;5092351;28;20036;-82
2023/01/26 00:52:21;;;;;;;23.40;13.48;;;17.20;70.90;;;18.11;39.92;99347.13;5077388;28;20096;-82
2023/01/26 00:54:47;;;;;;;32.22;13.10;;;17.20;70.80;;;18.14;39.71;99340.19;5108617;28;20174;-82
2023/01/26 00:57:13;;;;;;;24.33;12.77;;;17.10;70.80;;;18.10;39.74;99339.22;5086240;28;20120;-82
2023/01/26 00:59:39;;;;;;;25.88;13.88;;;17.20;71.00;;;18.09;39.70;99338.41;5074623;28;20044;-81
2023/01/26 01:02:08;;;;;;;23.08;12.73;;;17.20;70.90;;;18.12;39.91;99335.03;5071889;28;20099;-82
2023/01/26 01:04:34;;;;;;;24.48;13.48;;;17.20;70.90;;;18.12;39.96;99335.03;5093268;28;20082;-82
2023/01/26 01:07:00;;;;;;;23.63;12.88;;;17.20;70.80;;;18.08;40.07;99339.50;5076669;28;20798;-81
2023/01/26 01:09:26;;;;;;;27.52;13.63;;;17.20;70.80;;;18.09;39.76;99329.34;5076008;27;20046;-82
2023/01/26 01:11:52;;;;;;;24.30;12.65;;;17.20;70.70;;;18.09;39.87;99329.34;5096303;27;20039;-82
2023/01/26 01:14:18;;;;;;;22.50;12.80;;;17.20;70.70;;;18.10;39.81;99334.53;5095991;27;20046;-82
2023/01/26 01:16:46;;;;;;;29.40;12.80;;;17.20;70.60;;;18.06;39.72;99335.47;5113252;27;20032;-82
2023/01/26 01:19:16;;;;;;;24.15;12.25;;;17.20;70.60;;;18.07;39.86;99334.34;5062759;27;20035;-82
2023/01/26 01:21:42;;;;;;;21.02;12.07;;;17.20;70.60;;;18.07;39.81;99321.44;5093434;27;20039;-82
2023/01/26 01:24:08;;;;;;;24.13;12.50;;;17.20;70.60;;;18.07;39.69;99321.44;5090040;27;20035;-82
2023/01/26 01:26:34;;;;;;;19.92;12.05;;;17.20;70.60;;;18.04;39.70;99315.72;5078632;27;20039;-82
2023/01/26 01:29:00;;;;;;;18.35;11.45;;;17.20;70.70;;;18.06;39.59;99316.25;5095690;27;20099;-82
2023/01/26 01:31:28;;;;;;;22.48;12.45;;;17.20;70.50;;;18.05;39.73;99314.63;5080609;27;20050;-82
2023/01/26 01:33:55;;;;;;;18.77;11.30;;;17.20;70.50;;;18.06;39.52;99313.50;5073407;27;20048;-82
2023/01/26 01:36:21;;;;;;;24.35;12.57;;;17.20;70.50;;;18.01;39.70;99314.41;5079771;27;20049;-82
2023/01/26 01:38:47;;;;;;;23.20;11.95;;;17.10;70.60;;;18.06;39.56;99311.56;5094392;27;20038;-82
2023/01/26 01:41:17;;;;;;;23.48;11.82;;;17.20;70.50;;;18.04;39.70;99316.56;5063960;27;20062;-82
2023/01/26 01:43:43;;;;;;;20.52;11.82;;;17.20;70.50;;;18.06;39.61;99310.75;5079196;27;20136;-82
2023/01/26 01:46:33;;;;;;;17.58;11.20;;;17.20;70.40;;;18.00;39.60;99308.13;5080228;27;20046;-82
2023/01/26 01:49:02;;;;;;;20.20;11.43;;;17.20;71.40;;;18.06;39.55;99308.00;5092700;27;20118;-82
2023/01/26 01:51:37;;;;;;;17.85;11.68;;;17.10;70.50;;;18.02;39.94;99301.53;5076761;27;20110;-82
2023/01/26 01:54:12;;;;;;;25.30;12.70;;;17.10;70.60;;;18.00;39.64;99304.56;5079459;27;20268;-82
2023/01/26 01:56:40;;;;;;;17.38;10.60;;;17.10;70.70;;;18.00;39.82;99308.13;5061829;27;20046;-82
2023/01/26 01:59:06;;;;;;;20.15;11.60;;;17.10;70.80;;;17.98;39.56;99313.09;5061129;27;20051;-82
2023/01/26 02:01:33;;;;;;;20.70;12.07;;;17.10;70.70;;;18.01;39.53;99308.94;5079273;27;20060;-82
2023/01/26 02:04:02;;;;;;;18.10;11.45;;;17.10;70.50;;;18.01;39.73;99308.94;5077746;27;20684;-82
2023/01/26 02:06:42;;;;;;;18.95;11.82;;;17.10;70.50;;;17.98;39.82;99310.34;5076775;27;20043;-82
2023/01/26 02:10:17;;;;;;;22.25;11.95;;;17.10;70.60;;;17.98;39.66;99307.63;5095016;27;20163;-82
2023/01/26 02:11:54;;;;;;;23.42;10.65;;;17.10;70.40;;;18.01;39.50;99308.94;5081075;27;20063;-82
2023/01/26 02:14:20;;;;;;;16.02;10.80;;;17.10;70.60;;;18.00;39.72;99302.63;5059667;27;20405;-82
2023/01/26 02:16:46;;;;;;;19.05;10.70;;;17.10;70.60;;;17.97;39.64;99305.19;5077069;27;20039;-82
2023/01/26 02:19:22;;;;;;;22.73;12.20;;;17.10;70.60;;;17.99;39.79;99303.78;5110302;27;20080;-82
2023/01/26 02:21:48;;;;;;;23.67;12.02;;;17.10;70.50;;;17.99;39.79;99292.78;5080906;27;20140;-82
2023/01/26 02:24:25;;;;;;;20.17;11.80;;;17.10;70.50;;;17.96;39.66;99293.41;5076499;27;20135;-82
2023/01/26 02:26:51;;;;;;;21.42;10.98;;;17.10;70.60;;;17.98;39.80;99295.84;5095278;27;20636;-82
2023/01/26 02:29:17;;;;;;;18.17;10.43;;;17.10;70.40;;;17.95;39.63;99296.47;5076489;27;20064;-82
2023/01/26 02:31:43;;;;;;;17.52;11.32;;;17.20;70.50;;;17.97;39.60;99284.06;5095408;27;20077;-82
2023/01/26 02:34:10;;;;;;;18.35;10.88;;;17.10;70.50;;;17.96;39.84;99282.44;5076316;27;20039;-82
2023/01/26 02:36:36;;;;;;;16.75;11.00;;;17.10;70.60;;;17.91;39.85;99285.31;5063214;27;20036;-82
2023/01/26 02:39:17;;;;;;;17.73;9.38;;;17.10;70.50;;;17.93;39.69;99274.00;5090898;27;20092;-82
2023/01/26 02:44:28;;;;;;;17.73;10.30;;;17.10;70.60;;;17.94;39.89;99275.63;5102853;27;20042;-83
2023/01/26 02:46:55;;;;;;;19.15;11.05;;;17.00;71.60;;;18.03;39.98;99276.50;5082760;27;20047;-82
2023/01/26 02:52:06;;;;;;;19.83;10.48;;;17.10;71.30;;;17.98;39.96;99273.88;5099915;27;20526;-82
2023/01/26 02:57:16;;;;;;;15.80;9.45;;;17.10;71.00;;;17.93;40.00;99252.03;5086483;27;20035;-81
2023/01/26 02:59:42;;;;;;;15.55;10.13;;;17.10;71.00;;;17.92;40.00;99250.44;5074642;27;20064;-82
2023/01/26 03:02:09;;;;;;;18.08;10.43;;;17.00;70.80;;;17.89;39.78;99254.59;5077390;27;20038;-82
2023/01/26 03:04:34;;;;;;;17.38;10.32;;;17.00;70.70;;;17.91;39.62;99257.03;5079163;27;20050;-82
2023/01/26 03:07:01;;;;;;;23.13;11.15;;;17.00;70.80;;;17.94;39.92;99250.94;5096875;28;20143;-82
2023/01/26 03:09:27;;;;;;;16.25;9.95;;;17.00;70.90;;;17.96;39.78;99254.16;5079097;28;20105;-82
2023/01/26 03:11:53;;;;;;;16.73;10.27;;;17.00;70.90;;;17.94;39.91;99245.44;5072089;27;20043;-82
2023/01/26 03:14:19;;;;;;;18.55;11.50;;;17.10;70.70;;;17.88;39.85;99244.72;5072484;27;20046;-82
2023/01/26 03:16:45;;;;;;;15.55;9.40;;;17.10;70.70;;;17.91;39.99;99248.78;5111218;27;20050;-82
2023/01/26 03:27:37;;;;;;;14.15;10.18;;;17.00;70.80;;;17.87;39.72;99242.31;5099774;28;20041;-82
2023/01/26 03:30:04;;;;;;;15.95;9.73;;;17.00;71.40;;;17.84;39.89;99246.50;5078273;28;20091;-82
2023/01/26 03:32:30;;;;;;;16.80;10.40;;;17.00;70.70;;;17.86;39.72;99244.25;5091599;28;20053;-82
2023/01/26 03:34:56;;;;;;;17.02;10.02;;;17.00;70.70;;;17.85;39.61;99241.81;5062489;28;20035;-82
2023/01/26 03:37:22;;;;;;;15.27;9.65;;;17.00;70.50;;;17.89;40.05;99235.41;5061326;28;20039;-82
2023/01/26 03:56:26;;;;;;;16.70;9.88;;;17.00;70.80;;;17.85;39.73;99230.84;5103059;27;20035;-82
2023/01/26 03:58:56;;;;;;;16.17;10.15;;;17.00;70.90;;;17.92;40.17;99225.72;5100215;27;20046;-82
2023/01/26 04:01:27;;;;;;;14.57;8.73;;;17.00;71.10;;;17.97;39.89;99234.66;5096593;27;20046;-82
2023/01/26 04:09:27;;;;;;;15.55;9.70;;;17.00;71.00;;;18.06;39.72;99231.94;5099880;27;20068;-82
2023/01/26 04:11:53;;;;;;;13.70;8.95;;;17.00;70.90;;;18.09;39.67;99230.50;5062085;28;20039;-82
2023/01/26 04:22:44;;;;;;;15.98;9.45;;;17.10;70.60;;;18.13;39.74;99223.28;5086767;27;20068;-83
2023/01/26 04:25:17;;;;;;;13.57;9.38;;;17.20;70.50;;;18.09;39.67;99219.53;5113269;27;20047;-82
2023/01/26 04:27:44;;;;;;;16.88;9.13;;;17.20;70.40;;;18.13;39.50;99223.28;5085412;27;20055;-83
2023/01/26 04:30:12;;;;;;;14.63;9.38;;;17.20;70.30;;;18.13;39.46;99215.84;5067394;27;20035;-82
2023/01/26 04:32:39;;;;;;;13.38;9.05;;;17.20;70.20;;;18.16;39.13;99211.66;5111039;27;20051;-83
2023/01/26 04:35:05;;;;;;;14.88;10.13;;;17.20;70.20;;;18.17;39.40;99210.56;5099927;27;20475;-83
2023/01/26 04:37:34;;;;;;;13.63;9.13;;;17.20;70.30;;;18.21;39.28;99197.81;5115304;27;20043;-83
2023/01/26 04:40:01;;;;;;;12.85;9.48;;;17.30;70.20;;;18.23;39.28;99195.56;5068422;27;20035;-83
2023/01/26 04:42:27;;;;;;;14.00;9.75;;;17.40;70.10;;;18.28;39.10;99192.69;5083207;27;20071;-83
2023/01/26 04:44:53;;;;;;;12.30;8.90;;;17.40;70.10;;;18.29;39.27;99191.53;5084538;27;20678;-83
2023/01/26 04:47:19;;;;;;;14.98;9.15;;;17.40;70.10;;;18.32;39.18;99185.44;5094683;27;20044;-83
2023/01/26 04:49:46;;;;;;;12.40;8.82;;;17.40;70.00;;;18.34;39.31;99185.94;5064476;27;20087;-83
2023/01/26 04:52:12;;;;;;;12.75;8.73;;;17.30;70.10;;;18.34;39.13;99183.19;5066567;27;20039;-83
2023/01/26 04:54:39;;;;;;;15.15;9.52;;;17.40;70.00;;;18.34;39.21;99183.19;5078531;27;20040;-83
2023/01/26 04:57:05;;;;;;;15.35;8.75;;;17.40;70.00;;;18.36;39.33;99180.94;5101960;27;20149;-83
2023/01/26 04:59:32;;;;;;;14.30;8.40;;;17.40;69.90;;;18.39;39.24;99183.06;5080369;27;20378;-83
2023/01/26 05:01:57;;;;;;;12.93;7.68;;;17.50;70.10;;;18.42;39.13;99178.88;5100636;27;20055;-83
2023/01/26 05:04:24;;;;;;;10.88;8.60;;;17.40;70.00;;;18.43;39.12;99181.28;5079519;27;20049;-82
2023/01/26 05:06:50;;;;;;;13.40;8.32;;;17.50;70.00;;;18.42;39.06;99178.88;5097848;27;20044;-83
2023/01/26 05:09:16;;;;;;;13.73;9.38;;;17.50;70.00;;;18.46;39.13;99179.03;5083266;27;20060;-83
2023/01/26 05:11:42;;;;;;;15.02;9.18;;;17.50;70.00;;;18.44;39.12;99176.59;5102830;27;20051;-83
2023/01/26 05:14:08;;;;;;;13.85;8.43;;;17.50;70.00;;;18.42;39.16;99174.19;5094805;27;20040;-83
2023/01/26 05:16:34;;;;;;;12.30;7.93;;;17.50;70.90;;;18.48;39.23;99182.28;5098413;27;20087;-83
2023/01/26 05:19:00;;;;;;;12.85;8.38;;;17.60;70.20;;;18.49;39.30;99181.16;5084663;27;20041;-83
2023/01/26 05:21:27;;;;;;;14.98;8.98;;;17.60;70.40;;;18.49;39.16;99184.69;5080494;27;20035;-83
2023/01/26 05:23:53;;;;;;;13.18;8.48;;;17.60;70.10;;;18.51;39.26;99185.19;5116342;27;20080;-83
2023/01/26 05:26:19;;;;;;;10.68;7.32;;;17.60;70.10;;;18.51;39.15;99176.16;5083606;27;20040;-83
2023/01/26 05:28:46;;;;;;;15.48;8.45;;;17.50;70.20;;;18.49;39.12;99175.66;5083019;27;20397;-83
2023/01/26 05:31:12;;;;;;;11.30;8.77;;;17.50;70.10;;;18.51;38.93;99182.44;5101688;27;20138;-82
2023/01/26 05:33:38;;;;;;;13.68;8.65;;;17.50;70.20;;;18.52;39.12;99183.25;5117100;27;20749;-82
2023/01/26 05:36:05;;;;;;;12.65;8.30;;;17.50;71.10;;;18.53;39.23;99184.91;5097813;27;20035;-82
2023/01/26 05:38:32;;;;;;;11.18;8.38;;;17.50;70.30;;;18.51;39.31;99173.41;5085284;27;20043;-82
2023/01/26 05:40:58;;;;;;;10.07;7.35;;;17.60;70.10;;;18.52;39.11;99177.75;5066296;27;20043;-82
2023/01/26 05:43:25;;;;;;;10.73;8.45;;;17.60;70.10;;;18.51;39.20;99182.44;5100466;27;20035;-82
2023/01/26 05:45:51;;;;;;;11.02;8.07;;;17.60;70.10;;;18.51;39.32;99176.16;5081739;27;20045;-82
2023/01/26 05:48:17;;;;;;;11.63;8.55;;;17.60;70.50;;;18.52;39.41;99177.75;5084334;27;20043;-82
2023/01/26 05:50:43;;;;;;;9.77;8.35;;;17.60;70.50;;;18.52;39.31;99172.25;5102756;27;20070;-82
2023/01/26 05:53:09;;;;;;;12.52;8.70;;;17.60;70.40;;;18.53;39.24;99168.41;5115439;27;20134;-82
2023/01/26 05:55:35;;;;;;;12.35;8.23;;;17.60;70.20;;;18.53;39.24;99169.22;5098833;27;20049;-82
2023/01/26 05:58:01;;;;;;;14.68;8.52;;;17.60;70.20;;;18.51;39.40;99167.91;5078094;27;20046;-82
2023/01/26 06:00:27;;;;;;;12.73;8.75;;;17.60;70.10;;;18.51;39.35;99165.16;5084643;27;20043;-82
2023/01/26 06:02:53;;;;;;;12.93;8.23;;;17.50;70.40;;;18.51;39.41;99165.16;5100535;27;20045;-82
2023/01/26 06:05:19;;;;;;;11.70;8.15;;;17.50;70.40;;;18.51;39.29;99170.66;5099506;27;20039;-82
2023/01/26 06:07:45;;;;;;;13.88;7.63;;;17.60;70.40;;;18.53;39.25;99179.41;5085644;27;20039;-82
2023/01/26 06:10:11;;;;;;;11.30;8.13;;;17.50;70.30;;;18.53;39.53;99173.91;5097653;27;20054;-82
2023/01/26 06:12:38;;;;;;;10.68;7.35;;;17.50;70.30;;;18.56;39.18;99167.75;5057949;27;20428;-82
2023/01/26 06:15:06;;;;;;;13.02;7.75;;;17.60;70.40;;;18.54;39.31;99172.75;5075120;27;20043;-81
2023/01/26 06:17:32;;;;;;;10.40;7.05;;;17.60;70.50;;;18.54;39.41;99176.31;5095163;27;20051;-82
2023/01/26 06:19:58;;;;;;;13.85;7.95;;;17.60;70.50;;;18.55;39.32;99168.91;5096989;27;20035;-82
2023/01/26 06:22:24;;;;;;;13.93;8.40;;;17.60;70.60;;;18.55;39.27;99169.72;5096543;27;20065;-82
2023/01/26 06:24:50;;;;;;;9.88;7.63;;;17.60;70.60;;;18.54;39.34;99159.84;5085624;27;20035;-83
2023/01/26 06:27:17;;;;;;;9.93;7.75;;;17.50;70.60;;;18.55;39.19;99166.16;5077728;27;20036;-83
2023/01/26 06:29:44;;;;;;;10.55;8.70;;;17.50;70.70;;;18.55;39.27;99166.97;5079000;27;20082;-82
2023/01/26 06:32:12;;;;;;;13.50;8.57;;;17.50;70.60;;;18.51;39.43;99165.16;5081308;27;20175;-83
2023/01/26 06:34:38;;;;;;;13.68;8.35;;;17.50;70.60;;;18.55;39.23;99163.41;5077445;27;20043;-82
2023/01/26 06:37:04;;;;;;;13.13;7.60;;;17.50;70.50;;;18.56;39.16;99162.28;5098516;27;20107;-82
2023/01/26 06:39:31;;;;;;;11.50;6.90;;;17.60;70.60;;;18.55;39.33;99163.41;5069360;27;20039;-82
2023/01/26 06:41:57;;;;;;;12.18;8.25;;;17.50;70.50;;;18.54;39.38;99159.84;5083110;27;20035;-82
2023/01/26 06:44:23;;;;;;;10.52;7.85;;;17.50;70.80;;;18.54;39.38;99164.53;5078304;27;20035;-82
2023/01/26 06:46:49;;;;;;;11.32;7.47;;;17.50;70.60;;;18.56;39.24;99159.53;5080757;27;20035;-83
2023/01/26 06:49:15;;;;;;;10.48;7.60;;;17.50;70.60;;;18.54;39.34;99159.03;5082568;27;20036;-82
2023/01/26 06:51:57;;;;;;;9.70;7.60;;;17.50;70.70;;;18.52;39.39;99162.09;5097827;28;20050;-82
2023/01/26 06:54:23;;;;;;;12.25;8.20;;;17.50;70.80;;;18.54;39.32;99159.03;5111659;27;20034;-83
2023/01/26 06:56:52;;;;;;;15.63;8.60;;;17.50;70.80;;;18.55;39.19;99155.97;5111027;27;20043;-82
2023/01/26 06:59:19;;;;;;;10.32;7.85;;;17.50;70.80;;;18.53;39.24;99163.72;5063053;27;20099;-82
2023/01/26 07:01:48;;;;;;;13.98;7.65;;;17.50;70.80;;;18.51;39.25;99157.72;5073861;28;20093;-82
2023/01/26 07:04:15;;;;;;;12.02;8.80;;;17.50;70.80;;;18.53;39.32;99158.22;5093934;27;20043;-81
2023/01/26 07:06:42;;;;;;;11.95;8.07;;;17.50;70.90;;;18.55;39.24;99161.47;5062396;27;20082;-82
2023/01/26 07:09:09;;;;;;;9.77;7.72;;;17.40;70.80;;;18.56;39.24;99154.84;5062022;28;20479;-82
2023/01/26 07:11:36;;;;;;;10.45;7.63;;;17.40;70.90;;;18.55;39.24;99155.16;5092478;27;20051;-82
2023/01/26 07:14:02;;;;;;;11.40;8.13;;;17.50;70.90;;;18.53;39.16;99157.41;5073348;27;20096;-82
2023/01/26 07:16:28;;;;;;;13.00;8.15;;;17.40;70.80;;;18.56;39.37;99146.59;5062088;27;20074;-81
2023/01/26 07:18:54;;;;;;;11.23;7.30;;;17.40;70.80;;;18.51;39.39;99148.69;5097683;27;20040;-82
2023/01/26 07:21:21;;;;;;;13.80;8.75;;;17.50;71.10;;;18.51;39.61;99154.97;5075527;27;20087;-82
2023/01/26 07:23:48;;;;;;;11.65;7.50;;;17.40;71.20;;;18.54;39.31;99150.78;5098208;27;20047;-82
2023/01/26 07:26:14;;;;;;;9.73;7.35;;;17.40;71.20;;;18.55;39.34;99149.69;5080134;28;20495;-82
2023/01/26 07:28:40;;;;;;;10.57;7.88;;;17.40;71.10;;;18.56;39.34;99140.28;5094147;28;20043;-82
2023/01/26 07:31:10;;;;;;;10.45;7.82;;;17.40;71.10;;;18.54;39.32;99143.34;5083118;27;20401;-82
2023/01/26 07:33:36;;;;;;;12.50;7.53;;;17.40;71.10;;;18.53;39.32;99152.72;5103407;27;20569;-82
2023/01/26 07:36:02;;;;;;;14.68;9.30;;;17.40;71.00;;;18.54;39.32;99143.34;5088183;27;20152;-82
2023/01/26 07:38:28;;;;;;;11.65;8.20;;;17.40;71.00;;;18.56;39.33;99141.09;5087335;27;20512;-82
2023/01/26 07:40:55;;;;;;;11.25;8.05;;;17.40;71.10;;;18.56;39.32;99148.53;5087969;27;20045;-81
2023/01/26 07:43:21;;;;;;;9.38;7.63;;;17.40;71.10;;;18.54;39.25;99145.28;5102965;27;20154;-82
2023/01/26 07:45:52;;;;;;;13.80;7.75;;;17.30;71.00;;;18.56;39.32;99152.09;5080686;27;20039;-81
2023/01/26 07:48:19;;;;;;;10.00;7.60;;;17.30;71.00;;;18.53;39.18;99151.94;5071471;27;20035;-82
2023/01/26 07:50:48;;;;;;;10.95;7.55;;;17.40;71.00;;;18.52;39.26;99142.88;5087473;27;20046;-82
2023/01/26 07:53:14;;;;;;;13.07;7.50;;;17.40;71.10;;;18.51;39.12;99148.69;5118967;27;20043;-82
2023/01/26 07:55:42;;;;;;;10.15;8.10;;;17.40;71.10;;;18.53;39.47;99146.44;5085073;27;20122;-81
2023/01/26 07:58:09;;;;;;;12.40;8.48;;;17.40;71.10;;;18.55;39.24;99149.69;5064754;27;20046;-82
2023/01/26 08:00:36;;;;;;;9.73;8.20;;;17.40;71.10;;;18.53;39.17;99140.94;5088361;27;20047;-82
2023/01/26 08:03:03;;;;;;;9.98;7.50;;;17.30;70.90;;;18.51;39.26;99140.44;5088524;27;20058;-82
2023/01/26 08:05:30;;;;;;;13.18;7.60;;;17.40;71.10;;;18.53;39.17;99146.44;5085607;27;20043;-82
2023/01/26 08:07:59;;;;;;;11.18;7.57;;;17.40;71.00;;;18.55;39.31;99144.19;5086260;27;20107;-82
2023/01/26 08:10:30;;;;;;;9.43;7.47;;;17.30;70.80;;;18.55;39.12;99145.00;5083787;28;20050;-82
2023/01/26 08:12:59;;;;;;;9.43;7.78;;;17.40;71.00;;;18.50;39.33;99144.31;5077933;28;20081;-82
2023/01/26 08:15:26;;;;;;;10.27;7.63;;;17.40;71.00;;;18.51;39.25;99148.69;5098545;27;20050;-82
2023/01/26 08:17:53;;;;;;;12.32;8.80;;;17.30;70.80;;;18.51;39.20;99149.47;5092493;28;20040;-82
2023/01/26 08:20:21;;;;;;;11.50;7.70;;;17.30;70.80;;;18.50;39.26;99145.13;5065297;28;20043;-81
2023/01/26 08:22:47;;;;;;;13.38;8.00;;;17.30;70.90;;;18.50;39.05;99149.81;5099751;28;20467;-82
2023/01/26 08:25:13;;;;;;;10.43;7.18;;;17.40;70.90;;;18.49;38.83;99150.94;5094447;28;20115;-82
2023/01/26 08:27:39;;;;;;;9.52;7.13;;;17.30;70.70;;;18.51;39.23;99151.44;5083028;28;20048;-82
2023/01/26 08:30:06;;;;;;;10.07;8.18;;;17.30;70.70;;;18.52;39.25;99145.63;5102190;28;20035;-82
2023/01/26 08:32:32;;;;;;;10.45;8.23;;;17.30;70.80;;;18.52;39.13;99142.06;5064616;28;20053;-82
2023/01/26 08:34:59;;;;;;;10.75;7.90;;;17.30;70.80;;;18.51;39.07;99143.19;5116297;28;20039;-82
2023/01/26 08:37:25;;;;;;;10.20;7.85;;;17.30;70.70;;;18.52;39.04;99144.78;5108085;27;20123;-82
2023/01/26 08:39:51;;;;;;;10.48;8.13;;;17.30;70.80;;;18.47;39.10;99145.78;5081676;28;20047;-82
2023/01/26 08:42:17;;;;;;;8.40;6.78;;;17.30;70.80;;;18.51;39.14;99148.69;5078193;28;20036;-82
2023/01/26 08:44:43;;;;;;;10.60;8.02;;;17.30;70.70;;;18.48;39.16;99139.13;5056008;28;20040;-82
2023/01/26 08:47:09;;;;;;;10.57;7.63;;;17.40;70.80;;;18.48;39.19;99139.13;5095802;28;20378;-82
2023/01/26 08:49:35;;;;;;;9.63;7.57;;;17.30;70.60;;;18.52;39.08;99139.31;5110085;28;20046;-82
2023/01/26 08:52:01;;;;;;;12.55;8.63;;;17.30;70.60;;;18.52;39.01;99139.31;5086409;28;20103;-82
2023/01/26 08:54:28;;;;;;;10.45;8.23;;;17.30;70.60;;;18.50;38.99;99147.06;5121367;28;20058;-82
2023/01/26 08:56:54;;;;;;;9.30;6.82;;;17.30;70.70;;;18.47;38.96;99143.03;5078571;28;20035;-82
2023/01/26 08:59:20;;;;;;;12.32;8.85;;;17.30;70.70;;;18.49;38.97;99146.25;5112312;28;20036;-82
2023/01/26 09:01:48;;;;;;;14.30;8.45;;;17.30;70.60;;;18.48;38.82;99144.63;5081362;28;20036;-82
2023/01/26 09:04:14;;;;;;;11.32;8.73;;;17.30;70.50;;;18.47;38.98;99144.94;5099658;28;20103;-82
2023/01/26 09:06:40;;;;;;;11.60;8.80;;;17.30;70.50;;;18.47;39.04;99147.69;5100362;28;20057;-82
2023/01/26 09:09:11;;;;;;;14.05;8.82;;;17.30;70.50;;;18.46;38.90;99152.38;5111264;28;20471;-82
2023/01/26 09:11:39;;;;;;;11.82;8.00;;;17.30;70.40;;;18.49;39.12;99159.16;5083762;28;20066;-82
2023/01/26 09:14:05;;;;;;;13.07;8.50;;;17.40;70.80;;;18.50;39.20;99149.81;5115480;28;20044;-82
2023/01/26 09:16:31;;;;;;;12.57;8.90;;;17.30;70.70;;;18.48;39.10;99154.81;5076718;28;20050;-82
2023/01/26 09:18:57;;;;;;;8.20;7.10;;;17.30;70.70;;;18.47;39.03;99148.53;5115894;28;20072;-82
2023/01/26 09:21:23;;;;;;;10.20;7.13;;;17.30;70.60;;;18.49;39.13;99142.69;5083025;28;20493;-82
2023/01/26 09:23:50;;;;;;;11.68;8.25;;;17.30;70.70;;;18.51;39.11;99143.19;5077500;28;20122;-82
2023/01/26 09:26:15;;;;;;;12.15;8.75;;;17.40;70.70;;;18.49;39.30;99148.19;5114492;28;20051;-82
2023/01/26 09:28:42;;;;;;;12.02;8.43;;;17.40;70.50;;;18.48;38.94;99146.56;5094712;28;20046;-82
2023/01/26 09:31:11;;;;;;;12.15;8.35;;;17.40;70.50;;;18.48;38.81;99138.34;5093041;28;20035;-82
2023/01/26 09:33:37;;;;;;;12.07;8.65;;;17.30;70.40;;;18.49;38.92;99134.44;5064056;28;20067;-82
2023/01/26 09:36:08;;;;;;;11.10;7.93;;;17.30;70.60;;;18.51;38.93;99137.69;5099202;28;20097;-82
2023/01/26 09:38:35;;;;;;;10.25;7.97;;;17.40;70.50;;;18.50;39.15;99125.91;5077647;28;20036;-82
2023/01/26 09:41:20;;;;;;;9.82;7.05;;;17.40;70.50;;;18.50;38.99;99130.59;5080101;28;20390;-82
2023/01/26 09:43:56;;;;;;;9.70;7.43;;;17.30;70.60;;;18.49;38.95;99123.47;5113612;28;20107;-82
2023/01/26 09:46:50;;;;;;;9.73;7.70;;;17.30;70.50;;;18.50;39.00;99119.59;5074020;28;20091;-82
2023/01/26 09:49:41;;;;;;;10.80;7.57;;;17.30;70.30;;;18.48;38.99;99117.16;5098771;28;20032;-82
2023/01/26 09:52:22;;;;;;;10.98;7.53;;;17.40;70.40;;;18.49;38.97;99115.22;5081081;28;20043;-82
2023/01/26 09:54:51;;;;;;;11.18;7.97;;;17.30;70.30;;;18.47;39.07;99112.81;5097283;28;20066;-82
2023/01/26 09:57:35;;;;;;;11.43;8.45;;;17.30;70.30;;;18.54;38.85;99106.84;5081867;28;20039;-82
2023/01/26 10:00:21;;;;;;;12.18;8.15;;;17.30;70.40;;;18.53;38.63;99097.00;5085372;28;20056;-82
2023/01/26 10:03:15;;;;;;;12.00;8.00;;;17.40;70.40;;;18.49;38.76;99096.00;5111763;28;20050;-82
2023/01/26 10:06:25;;;;;;;10.52;8.40;;;17.30;70.20;;;18.49;38.95;99098.75;5108652;28;20118;-82
2023/01/26 10:08:51;;;;;;;11.30;7.63;;;17.40;70.10;;;18.53;38.85;99091.50;5098025;27;20046;-82
2023/01/26 10:11:49;;;;;;;11.85;9.10;;;17.30;70.10;;;18.49;38.88;99090.50;5107585;28;20107;-82
2023/01/26 10:14:35;;;;;;;16.38;7.18;;;17.30;70.20;;;18.48;38.95;99088.91;5092784;27;20142;-82
2023/01/26 10:17:06;;;;;;;10.38;7.68;;;17.30;70.20;;;18.46;38.83;99086.44;5082111;28;20042;-82
2023/01/26 10:19:48;;;;;;;12.57;8.68;;;17.30;70.20;;;18.49;38.69;99085.81;5077114;27;20062;-82
2023/01/26 10:22:23;;;;;;;11.77;9.10;;;17.30;70.20;;;18.49;38.76;99085.00;5079523;28;20032;-82
2023/01/26 10:24:49;;;;;;;11.48;7.82;;;17.30;70.10;;;18.50;38.91;99087.44;5077180;28;20044;-82
2023/01/26 10:27:17;;;;;;;10.20;8.00;;;17.40;70.30;;;18.51;38.99;99085.50;5072321;28;20095;-82
2023/01/26 10:29:43;;;;;;;14.93;9.23;;;17.40;70.30;;;18.51;39.09;99082.75;5096148;28;20114;-82
2023/01/26 10:32:14;;;;;;;11.50;8.60;;;17.40;70.30;;;18.46;38.93;99080.97;5078140;28;20063;-81
2023/01/26 10:34:41;;;;;;;9.65;7.55;;;17.40;70.20;;;18.49;38.97;99080.31;5095547;28;20047;-82
2023/01/26 10:37:25;;;;;;;12.90;7.97;;;17.40;70.10;;;18.46;38.76;99075.47;5061870;28;20483;-82
2023/01/26 10:40:08;;;;;;;12.77;9.60;;;17.30;70.70;;;18.50;38.80;99075.66;5070517;28;20040;-81
2023/01/26 10:42:35;;;;;;;10.77;7.85;;;17.40;69.90;;;18.50;38.67;99067.41;5077729;28;20058;-82
2023/01/26 10:45:29;;;;;;;10.98;8.00;;;17.40;69.90;;;18.53;38.74;99066.78;5062093;28;20475;-82
2023/01/26 10:48:03;;;;;;;12.65;7.93;;;17.30;69.80;;;18.49;39.02;99060.28;5091093;28;20484;-81
2023/01/26 10:50:30;;;;;;;10.77;7.82;;;17.40;69.90;;;18.49;38.85;99066.59;5091607;28;20047;-82
2023/01/26 10:52:59;;;;;;;11.48;7.75;;;17.40;69.90;;;18.50;38.66;99070.16;5055564;28;20096;-81
2023/01/26 10:55:25;;;;;;;11.32;8.38;;;17.40;69.90;;;18.52;38.82;99056.88;5092418;28;20406;-82
2023/01/26 10:57:51;;;;;;;16.90;9.80;;;17.40;70.10;;;18.49;38.97;99060.28;5076950;28;20047;-82
2023/01/26 11:00:20;;;;;;;9.52;7.57;;;17.40;69.90;;;18.49;38.93;99054.78;5079192;28;20039;-82
2023/01/26 11:02:58;;;;;;;10.65;8.57;;;17.40;69.90;;;18.49;39.14;99057.53;5109022;28;20043;-82